sensor_id;sensor_type;location;lat;lon;timestamp;temperature;humidity
22108;DHT22;11220;48.812;9.128;2023-05-07T00:00:33;21.10;82.70
22108;DHT22;11220;48.812;9.128;2023-05-07T00:02:59;19.90;81.80
22108;DHT22;11220;48.812;9.128;2023-05-07T00:05:25;20.80;82.40
22108;DHT22;11220;48.812;9.128;2023-05-07T00:07:51;21.60;83.10
22108;DHT22;11220;48.812;9.128;2023-05-07T00:10:18;20.90;82.60
22108;DHT22;11220;48.812;9.128;2023-05-07T00:12:44;20.80;82.60
22108;DHT22;11220;48.812;9.128;2023-05-07T00:15:10;20.60;82.60
22108;DHT22;11220;48.812;9.128;2023-05-07T00:17:36;22.00;83.20
22108;DHT22;11220;48.812;9.128;2023-05-07T00:20:02;21.30;82.70
22108;DHT22;11220;48.812;9.128;2023-05-07T00:22:29;19.90;81.90
22108;DHT22;11220;48.812;9.128;2023-05-07T00:24:55;19.90;82.00
22108;DHT22;11220;48.812;9.128;2023-05-07T00:27:21;20.80;82.50
22108;DHT22;11220;48.812;9.128;2023-05-07T00:29:47;20.60;82.60
22108;DHT22;11220;48.812;9.128;2023-05-07T00:32:13;21.80;83.80
22108;DHT22;11220;48.812;9.128;2023-05-07T00:34:38;21.90;83.60
22108;DHT22;11220;48.812;9.128;2023-05-07T00:37:05;21.60;83.20
22108;DHT22;11220;48.812;9.128;2023-05-07T00:39:32;19.80;82.40
22108;DHT22;11220;48.812;9.128;2023-05-07T00:41:58;21.10;83.70
22108;DHT22;11220;48.812;9.128;2023-05-07T00:44:24;19.80;82.10
22108;DHT22;11220;48.812;9.128;2023-05-07T00:46:49;19.90;82.10
22108;DHT22;11220;48.812;9.128;2023-05-07T00:49:15;19.80;82.00
22108;DHT22;11220;48.812;9.128;2023-05-07T00:51:41;19.90;82.20
22108;DHT22;11220;48.812;9.128;2023-05-07T00:54:08;20.70;82.70
22108;DHT22;11220;48.812;9.128;2023-05-07T00:56:34;19.70;82.10
22108;DHT22;11220;48.812;9.128;2023-05-07T00:59:02;21.40;83.20
22108;DHT22;11220;48.812;9.128;2023-05-07T01:01:28;19.80;82.10
22108;DHT22;11220;48.812;9.128;2023-05-07T01:03:53;21.80;83.60
22108;DHT22;11220;48.812;9.128;2023-05-07T01:06:20;20.40;83.20
22108;DHT22;11220;48.812;9.128;2023-05-07T01:08:48;19.80;82.20
22108;DHT22;11220;48.812;9.128;2023-05-07T01:11:16;20.50;83.10
22108;DHT22;11220;48.812;9.128;2023-05-07T01:13:45;21.20;84.40
22108;DHT22;11220;48.812;9.128;2023-05-07T01:16:16;20.00;82.70
22108;DHT22;11220;48.812;9.128;2023-05-07T01:18:42;21.80;83.70
22108;DHT22;11220;48.812;9.128;2023-05-07T01:21:10;21.40;83.60
22108;DHT22;11220;48.812;9.128;2023-05-07T01:23:36;20.90;83.40
22108;DHT22;11220;48.812;9.128;2023-05-07T01:26:02;21.00;83.10
22108;DHT22;11220;48.812;9.128;2023-05-07T01:28:28;19.80;82.60
22108;DHT22;11220;48.812;9.128;2023-05-07T01:30:56;19.70;82.80
22108;DHT22;11220;48.812;9.128;2023-05-07T01:33:23;20.00;82.50
22108;DHT22;11220;48.812;9.128;2023-05-07T01:35:53;21.00;83.10
22108;DHT22;11220;48.812;9.128;2023-05-07T01:38:19;21.90;83.90
22108;DHT22;11220;48.812;9.128;2023-05-07T01:40:45;21.50;83.50
22108;DHT22;11220;48.812;9.128;2023-05-07T01:43:11;20.50;82.80
22108;DHT22;11220;48.812;9.128;2023-05-07T01:45:38;21.20;83.50
22108;DHT22;11220;48.812;9.128;2023-05-07T01:48:04;20.20;82.60
22108;DHT22;11220;48.812;9.128;2023-05-07T01:50:31;19.70;82.50
22108;DHT22;11220;48.812;9.128;2023-05-07T01:52:57;19.70;82.50
22108;DHT22;11220;48.812;9.128;2023-05-07T01:55:23;20.10;82.60
22108;DHT22;11220;48.812;9.128;2023-05-07T01:57:49;20.80;83.20
22108;DHT22;11220;48.812;9.128;2023-05-07T02:00:14;21.70;83.70
22108;DHT22;11220;48.812;9.128;2023-05-07T02:02:40;19.70;82.80
22108;DHT22;11220;48.812;9.128;2023-05-07T02:05:06;19.70;82.50
22108;DHT22;11220;48.812;9.128;2023-05-07T02:07:31;19.60;82.60
22108;DHT22;11220;48.812;9.128;2023-05-07T02:09:57;20.60;83.20
22108;DHT22;11220;48.812;9.128;2023-05-07T02:12:23;19.70;82.70
22108;DHT22;11220;48.812;9.128;2023-05-07T02:14:49;19.70;83.70
22108;DHT22;11220;48.812;9.128;2023-05-07T02:17:15;19.80;82.60
22108;DHT22;11220;48.812;9.128;2023-05-07T02:19:40;19.70;82.50
22108;DHT22;11220;48.812;9.128;2023-05-07T02:22:07;20.80;83.50
22108;DHT22;11220;48.812;9.128;2023-05-07T02:24:32;20.60;83.20
22108;DHT22;11220;48.812;9.128;2023-05-07T02:26:58;20.50;83.10
22108;DHT22;11220;48.812;9.128;2023-05-07T02:29:23;20.70;83.20
22108;DHT22;11220;48.812;9.128;2023-05-07T02:31:49;19.60;83.60
22108;DHT22;11220;48.812;9.128;2023-05-07T02:34:16;20.30;83.30
22108;DHT22;11220;48.812;9.128;2023-05-07T02:36:42;21.60;83.90
22108;DHT22;11220;48.812;9.128;2023-05-07T02:39:08;20.60;83.20
22108;DHT22;11220;48.812;9.128;2023-05-07T02:41:34;21.10;83.50
22108;DHT22;11220;48.812;9.128;2023-05-07T02:43:59;19.60;82.70
22108;DHT22;11220;48.812;9.128;2023-05-07T02:46:25;20.40;83.30
22108;DHT22;11220;48.812;9.128;2023-05-07T02:48:50;19.60;82.70
22108;DHT22;11220;48.812;9.128;2023-05-07T02:51:20;20.40;83.10
22108;DHT22;11220;48.812;9.128;2023-05-07T02:53:46;19.90;82.80
22108;DHT22;11220;48.812;9.128;2023-05-07T02:56:12;20.80;83.60
22108;DHT22;11220;48.812;9.128;2023-05-07T02:58:37;20.40;83.20
22108;DHT22;11220;48.812;9.128;2023-05-07T03:01:05;20.70;83.40
22108;DHT22;11220;48.812;9.128;2023-05-07T03:03:30;20.60;83.40
22108;DHT22;11220;48.812;9.128;2023-05-07T03:05:56;21.00;83.80
22108;DHT22;11220;48.812;9.128;2023-05-07T03:08:22;20.20;83.20
22108;DHT22;11220;48.812;9.128;2023-05-07T03:10:47;20.30;83.10
22108;DHT22;11220;48.812;9.128;2023-05-07T03:13:13;20.50;83.30
22108;DHT22;11220;48.812;9.128;2023-05-07T03:15:38;20.50;83.30
22108;DHT22;11220;48.812;9.128;2023-05-07T03:18:04;20.70;83.40
22108;DHT22;11220;48.812;9.128;2023-05-07T03:20:29;19.50;82.70
22108;DHT22;11220;48.812;9.128;2023-05-07T03:22:55;20.70;83.90
22108;DHT22;11220;48.812;9.128;2023-05-07T03:25:21;19.50;82.90
22108;DHT22;11220;48.812;9.128;2023-05-07T03:27:46;19.50;82.80
22108;DHT22;11220;48.812;9.128;2023-05-07T03:30:12;20.80;83.70
22108;DHT22;11220;48.812;9.128;2023-05-07T03:32:38;19.50;82.70
22108;DHT22;11220;48.812;9.128;2023-05-07T03:35:04;20.40;83.50
22108;DHT22;11220;48.812;9.128;2023-05-07T03:37:29;19.50;82.90
22108;DHT22;11220;48.812;9.128;2023-05-07T03:39:55;19.50;82.80
22108;DHT22;11220;48.812;9.128;2023-05-07T03:42:21;20.70;83.60
22108;DHT22;11220;48.812;9.128;2023-05-07T03:44:46;20.00;83.10
22108;DHT22;11220;48.812;9.128;2023-05-07T03:47:12;20.00;83.10
22108;DHT22;11220;48.812;9.128;2023-05-07T03:49:39;21.00;83.80
22108;DHT22;11220;48.812;9.128;2023-05-07T03:52:05;19.40;82.70
22108;DHT22;11220;48.812;9.128;2023-05-07T03:54:30;20.80;83.60
22108;DHT22;11220;48.812;9.128;2023-05-07T03:56:56;19.50;82.80
22108;DHT22;11220;48.812;9.128;2023-05-07T03:59:22;20.40;83.40
22108;DHT22;11220;48.812;9.128;2023-05-07T04:01:48;20.70;83.50
22108;DHT22;11220;48.812;9.128;2023-05-07T04:04:14;19.80;83.40
22108;DHT22;11220;48.812;9.128;2023-05-07T04:06:40;20.30;83.40
22108;DHT22;11220;48.812;9.128;2023-05-07T04:09:05;19.50;82.80
22108;DHT22;11220;48.812;9.128;2023-05-07T04:11:31;20.70;83.60
22108;DHT22;11220;48.812;9.128;2023-05-07T04:13:57;19.40;82.80
22108;DHT22;11220;48.812;9.128;2023-05-07T04:16:23;20.20;83.40
22108;DHT22;11220;48.812;9.128;2023-05-07T04:18:48;19.40;83.30
22108;DHT22;11220;48.812;9.128;2023-05-07T04:21:18;19.40;82.80
22108;DHT22;11220;48.812;9.128;2023-05-07T04:23:45;20.10;83.30
22108;DHT22;11220;48.812;9.128;2023-05-07T04:26:11;20.50;83.50
22108;DHT22;11220;48.812;9.128;2023-05-07T04:28:36;19.40;82.80
22108;DHT22;11220;48.812;9.128;2023-05-07T04:31:02;19.60;83.00
22108;DHT22;11220;48.812;9.128;2023-05-07T04:33:27;19.30;82.70
22108;DHT22;11220;48.812;9.128;2023-05-07T04:35:53;20.10;83.30
22108;DHT22;11220;48.812;9.128;2023-05-07T04:38:19;19.40;82.80
22108;DHT22;11220;48.812;9.128;2023-05-07T04:40:44;20.10;83.50
22108;DHT22;11220;48.812;9.128;2023-05-07T04:43:10;20.70;83.60
22108;DHT22;11220;48.812;9.128;2023-05-07T04:45:36;20.40;83.40
22108;DHT22;11220;48.812;9.128;2023-05-07T04:48:02;19.60;83.00
22108;DHT22;11220;48.812;9.128;2023-05-07T04:50:27;19.40;82.80
22108;DHT22;11220;48.812;9.128;2023-05-07T04:52:53;20.60;84.50
22108;DHT22;11220;48.812;9.128;2023-05-07T04:55:19;19.40;82.90
22108;DHT22;11220;48.812;9.128;2023-05-07T04:57:44;19.30;82.80
22108;DHT22;11220;48.812;9.128;2023-05-07T05:00:11;20.50;83.70
22108;DHT22;11220;48.812;9.128;2023-05-07T05:02:40;19.30;82.80
22108;DHT22;11220;48.812;9.128;2023-05-07T05:05:06;19.30;82.80
22108;DHT22;11220;48.812;9.128;2023-05-07T05:07:32;19.30;82.80
22108;DHT22;11220;48.812;9.128;2023-05-07T05:09:58;20.20;83.60
22108;DHT22;11220;48.812;9.128;2023-05-07T05:12:23;19.80;83.20
22108;DHT22;11220;48.812;9.128;2023-05-07T05:14:49;19.30;83.00
22108;DHT22;11220;48.812;9.128;2023-05-07T05:17:15;19.70;83.10
22108;DHT22;11220;48.812;9.128;2023-05-07T05:19:40;20.10;83.40
22108;DHT22;11220;48.812;9.128;2023-05-07T05:22:06;19.30;82.80
22108;DHT22;11220;48.812;9.128;2023-05-07T05:24:31;20.50;83.70
22108;DHT22;11220;48.812;9.128;2023-05-07T05:26:57;21.70;84.40
22108;DHT22;11220;48.812;9.128;2023-05-07T05:29:25;21.00;84.00
22108;DHT22;11220;48.812;9.128;2023-05-07T05:31:50;19.40;83.00
22108;DHT22;11220;48.812;9.128;2023-05-07T05:34:16;19.70;83.20
22108;DHT22;11220;48.812;9.128;2023-05-07T05:36:42;19.30;83.00
22108;DHT22;11220;48.812;9.128;2023-05-07T05:39:08;19.80;83.20
22108;DHT22;11220;48.812;9.128;2023-05-07T05:41:34;19.30;83.00
22108;DHT22;11220;48.812;9.128;2023-05-07T05:44:00;20.00;83.50
22108;DHT22;11220;48.812;9.128;2023-05-07T05:46:25;19.30;83.00
22108;DHT22;11220;48.812;9.128;2023-05-07T05:48:51;19.50;83.30
22108;DHT22;11220;48.812;9.128;2023-05-07T05:51:16;19.40;83.10
22108;DHT22;11220;48.812;9.128;2023-05-07T05:53:42;19.40;83.60
22108;DHT22;11220;48.812;9.128;2023-05-07T05:56:08;19.30;83.10
22108;DHT22;11220;48.812;9.128;2023-05-07T05:58:33;21.30;84.50
22108;DHT22;11220;48.812;9.128;2023-05-07T06:00:59;20.50;83.90
22108;DHT22;11220;48.812;9.128;2023-05-07T06:03:24;20.40;83.80
22108;DHT22;11220;48.812;9.128;2023-05-07T06:05:50;20.40;83.90
22108;DHT22;11220;48.812;9.128;2023-05-07T06:08:16;20.90;84.20
22108;DHT22;11220;48.812;9.128;2023-05-07T06:10:42;20.50;83.90
22108;DHT22;11220;48.812;9.128;2023-05-07T06:13:08;19.30;83.20
22108;DHT22;11220;48.812;9.128;2023-05-07T06:15:33;19.40;83.20
22108;DHT22;11220;48.812;9.128;2023-05-07T06:17:59;19.40;83.20
22108;DHT22;11220;48.812;9.128;2023-05-07T06:20:24;20.50;84.10
22108;DHT22;11220;48.812;9.128;2023-05-07T06:22:50;20.60;84.00
22108;DHT22;11220;48.812;9.128;2023-05-07T06:25:15;19.40;83.30
22108;DHT22;11220;48.812;9.128;2023-05-07T06:27:41;19.30;83.20
22108;DHT22;11220;48.812;9.128;2023-05-07T06:30:07;19.40;83.30
22108;DHT22;11220;48.812;9.128;2023-05-07T06:32:33;19.40;83.30
22108;DHT22;11220;48.812;9.128;2023-05-07T06:34:59;19.30;83.30
22108;DHT22;11220;48.812;9.128;2023-05-07T06:37:24;19.50;83.40
22108;DHT22;11220;48.812;9.128;2023-05-07T06:39:50;19.30;83.40
22108;DHT22;11220;48.812;9.128;2023-05-07T06:42:16;20.00;84.10
22108;DHT22;11220;48.812;9.128;2023-05-07T06:44:41;19.80;83.70
22108;DHT22;11220;48.812;9.128;2023-05-07T06:47:07;21.70;84.90
22108;DHT22;11220;48.812;9.128;2023-05-07T06:49:33;20.90;84.40
22108;DHT22;11220;48.812;9.128;2023-05-07T06:51:58;21.90;85.00
22108;DHT22;11220;48.812;9.128;2023-05-07T06:54:24;21.10;84.60
22108;DHT22;11220;48.812;9.128;2023-05-07T06:56:49;21.20;84.50
22108;DHT22;11220;48.812;9.128;2023-05-07T06:59:15;19.50;83.50
22108;DHT22;11220;48.812;9.128;2023-05-07T07:01:41;20.90;84.30
22108;DHT22;11220;48.812;9.128;2023-05-07T07:04:06;19.80;83.50
22108;DHT22;11220;48.812;9.128;2023-05-07T07:06:32;19.50;83.60
22108;DHT22;11220;48.812;9.128;2023-05-07T07:08:58;19.40;83.30
22108;DHT22;11220;48.812;9.128;2023-05-07T07:11:24;20.30;83.80
22108;DHT22;11220;48.812;9.128;2023-05-07T07:13:50;20.50;83.90
22108;DHT22;11220;48.812;9.128;2023-05-07T07:16:16;19.40;83.20
22108;DHT22;11220;48.812;9.128;2023-05-07T07:18:42;20.40;83.80
22108;DHT22;11220;48.812;9.128;2023-05-07T07:21:07;19.70;83.40
22108;DHT22;11220;48.812;9.128;2023-05-07T07:23:33;19.70;83.30
22108;DHT22;11220;48.812;9.128;2023-05-07T07:25:58;19.50;83.20
22108;DHT22;11220;48.812;9.128;2023-05-07T07:28:24;19.50;83.10
22108;DHT22;11220;48.812;9.128;2023-05-07T07:30:50;20.10;83.50
22108;DHT22;11220;48.812;9.128;2023-05-07T07:33:15;20.60;83.80
22108;DHT22;11220;48.812;9.128;2023-05-07T07:35:41;19.50;83.10
22108;DHT22;11220;48.812;9.128;2023-05-07T07:38:06;19.50;83.10
22108;DHT22;11220;48.812;9.128;2023-05-07T07:40:34;20.60;83.80
22108;DHT22;11220;48.812;9.128;2023-05-07T07:43:00;20.30;83.60
22108;DHT22;11220;48.812;9.128;2023-05-07T07:45:26;20.60;83.90
22108;DHT22;11220;48.812;9.128;2023-05-07T07:47:52;20.60;83.80
22108;DHT22;11220;48.812;9.128;2023-05-07T07:50:17;21.40;84.30
22108;DHT22;11220;48.812;9.128;2023-05-07T07:52:43;19.60;83.10
22108;DHT22;11220;48.812;9.128;2023-05-07T07:55:09;19.70;83.10
22108;DHT22;11220;48.812;9.128;2023-05-07T07:57:35;19.60;83.60
22108;DHT22;11220;48.812;9.128;2023-05-07T08:00:01;19.00;84.60
22108;DHT22;11220;48.812;9.128;2023-05-07T08:02:26;19.70;83.70
22108;DHT22;11220;48.812;9.128;2023-05-07T08:04:52;19.60;83.10
22108;DHT22;11220;48.812;9.128;2023-05-07T08:07:17;20.30;83.50
22108;DHT22;11220;48.812;9.128;2023-05-07T08:09:46;21.20;84.20
22108;DHT22;11220;48.812;9.128;2023-05-07T08:12:11;21.30;84.20
22108;DHT22;11220;48.812;9.128;2023-05-07T08:14:37;19.90;83.40
22108;DHT22;11220;48.812;9.128;2023-05-07T08:17:03;19.70;83.50
22108;DHT22;11220;48.812;9.128;2023-05-07T08:19:28;19.70;83.60
22108;DHT22;11220;48.812;9.128;2023-05-07T08:21:54;22.10;85.00
22108;DHT22;11220;48.812;9.128;2023-05-07T08:24:21;21.90;85.40
22108;DHT22;11220;48.812;9.128;2023-05-07T08:26:46;19.70;83.80
22108;DHT22;11220;48.812;9.128;2023-05-07T08:29:12;21.00;85.70
22108;DHT22;11220;48.812;9.128;2023-05-07T08:31:38;20.30;84.10
22108;DHT22;11220;48.812;9.128;2023-05-07T08:34:06;19.70;83.30
22108;DHT22;11220;48.812;9.128;2023-05-07T08:36:32;20.70;83.60
22108;DHT22;11220;48.812;9.128;2023-05-07T08:38:58;20.10;82.80
22108;DHT22;11220;48.812;9.128;2023-05-07T08:41:24;19.70;82.60
22108;DHT22;11220;48.812;9.128;2023-05-07T08:43:51;19.70;82.90
22108;DHT22;11220;48.812;9.128;2023-05-07T08:46:20;19.70;83.30
22108;DHT22;11220;48.812;9.128;2023-05-07T08:48:50;19.70;83.30
22108;DHT22;11220;48.812;9.128;2023-05-07T08:51:20;20.10;83.20
22108;DHT22;11220;48.812;9.128;2023-05-07T08:53:48;20.40;83.10
22108;DHT22;11220;48.812;9.128;2023-05-07T08:56:14;19.70;82.70
22108;DHT22;11220;48.812;9.128;2023-05-07T08:58:41;19.70;82.80
22108;DHT22;11220;48.812;9.128;2023-05-07T09:01:09;21.00;83.80
22108;DHT22;11220;48.812;9.128;2023-05-07T09:03:37;19.70;83.00
22108;DHT22;11220;48.812;9.128;2023-05-07T09:06:04;19.80;83.10
22108;DHT22;11220;48.812;9.128;2023-05-07T09:08:31;19.70;83.00
22108;DHT22;11220;48.812;9.128;2023-05-07T09:10:57;20.70;83.60
22108;DHT22;11220;48.812;9.128;2023-05-07T09:13:23;20.00;82.90
22108;DHT22;11220;48.812;9.128;2023-05-07T09:15:48;19.80;82.60
22108;DHT22;11220;48.812;9.128;2023-05-07T09:18:40;19.90;82.60
22108;DHT22;11220;48.812;9.128;2023-05-07T09:21:58;19.90;82.50
22108;DHT22;11220;48.812;9.128;2023-05-07T09:38:17;20.00;82.30
22108;DHT22;11220;48.812;9.128;2023-05-07T09:40:44;20.00;82.50
22108;DHT22;11220;48.812;9.128;2023-05-07T09:43:11;20.00;82.40
22108;DHT22;11220;48.812;9.128;2023-05-07T09:45:37;21.50;83.50
22108;DHT22;11220;48.812;9.128;2023-05-07T09:48:05;21.20;83.30
22108;DHT22;11220;48.812;9.128;2023-05-07T09:50:35;20.00;82.60
22108;DHT22;11220;48.812;9.128;2023-05-07T09:53:03;20.00;82.70
22108;DHT22;11220;48.812;9.128;2023-05-07T09:55:29;20.80;83.20
22108;DHT22;11220;48.812;9.128;2023-05-07T09:57:55;20.00;82.70
22108;DHT22;11220;48.812;9.128;2023-05-07T10:00:22;20.10;82.80
22108;DHT22;11220;48.812;9.128;2023-05-07T10:02:49;20.00;82.90
22108;DHT22;11220;48.812;9.128;2023-05-07T10:05:21;20.70;83.30
22108;DHT22;11220;48.812;9.128;2023-05-07T10:07:47;20.00;82.80
22108;DHT22;11220;48.812;9.128;2023-05-07T10:10:14;20.00;82.90
22108;DHT22;11220;48.812;9.128;2023-05-07T10:12:41;20.40;83.10
22108;DHT22;11220;48.812;9.128;2023-05-07T10:15:07;20.30;83.10
22108;DHT22;11220;48.812;9.128;2023-05-07T10:17:40;20.10;83.00
22108;DHT22;11220;48.812;9.128;2023-05-07T10:20:07;20.10;83.10
22108;DHT22;11220;48.812;9.128;2023-05-07T10:22:45;20.10;83.10
22108;DHT22;11220;48.812;9.128;2023-05-07T10:25:23;20.10;83.10
22108;DHT22;11220;48.812;9.128;2023-05-07T10:27:51;21.80;84.40
22108;DHT22;11220;48.812;9.128;2023-05-07T10:30:31;21.00;83.80
22108;DHT22;11220;48.812;9.128;2023-05-07T10:33:03;20.10;83.10
22108;DHT22;11220;48.812;9.128;2023-05-07T10:35:36;20.60;83.50
22108;DHT22;11220;48.812;9.128;2023-05-07T10:38:03;21.10;84.70
22108;DHT22;11220;48.812;9.128;2023-05-07T10:40:31;20.60;83.50
22108;DHT22;11220;48.812;9.128;2023-05-07T10:42:58;20.40;83.40
22108;DHT22;11220;48.812;9.128;2023-05-07T10:45:28;20.90;83.80
22108;DHT22;11220;48.812;9.128;2023-05-07T10:48:07;21.20;84.00
22108;DHT22;11220;48.812;9.128;2023-05-07T10:50:37;21.10;84.00
22108;DHT22;11220;48.812;9.128;2023-05-07T10:53:21;21.00;83.90
22108;DHT22;11220;48.812;9.128;2023-05-07T10:55:51;20.80;83.90
22108;DHT22;11220;48.812;9.128;2023-05-07T10:58:26;20.60;83.80
22108;DHT22;11220;48.812;9.128;2023-05-07T11:01:02;20.20;83.60
22108;DHT22;11220;48.812;9.128;2023-05-07T11:03:28;20.80;84.00
22108;DHT22;11220;48.812;9.128;2023-05-07T11:06:14;20.20;83.60
22108;DHT22;11220;48.812;9.128;2023-05-07T11:08:53;20.20;83.60
22108;DHT22;11220;48.812;9.128;2023-05-07T11:11:19;20.20;83.70
22108;DHT22;11220;48.812;9.128;2023-05-07T11:13:48;20.20;83.70
22108;DHT22;11220;48.812;9.128;2023-05-07T11:16:24;20.20;83.70
22108;DHT22;11220;48.812;9.128;2023-05-07T11:18:51;20.20;83.70
22108;DHT22;11220;48.812;9.128;2023-05-07T11:21:39;20.20;83.80
22108;DHT22;11220;48.812;9.128;2023-05-07T11:24:09;20.20;83.80
22108;DHT22;11220;48.812;9.128;2023-05-07T11:26:46;20.20;83.80
22108;DHT22;11220;48.812;9.128;2023-05-07T11:29:17;20.20;83.80
22108;DHT22;11220;48.812;9.128;2023-05-07T11:31:43;20.20;83.80
22108;DHT22;11220;48.812;9.128;2023-05-07T11:34:08;20.20;83.90
22108;DHT22;11220;48.812;9.128;2023-05-07T11:36:36;20.60;84.10
22108;DHT22;11220;48.812;9.128;2023-05-07T11:39:06;20.10;83.70
22108;DHT22;11220;48.812;9.128;2023-05-07T11:41:47;20.20;83.80
22108;DHT22;11220;48.812;9.128;2023-05-07T11:44:13;20.30;83.80
22108;DHT22;11220;48.812;9.128;2023-05-07T11:46:43;20.20;84.00
22108;DHT22;11220;48.812;9.128;2023-05-07T11:49:09;20.50;84.30
22108;DHT22;11220;48.812;9.128;2023-05-07T11:51:41;22.30;85.20
22108;DHT22;11220;48.812;9.128;2023-05-07T11:54:09;20.30;83.90
22108;DHT22;11220;48.812;9.128;2023-05-07T11:56:37;20.70;84.20
22108;DHT22;11220;48.812;9.128;2023-05-07T11:59:03;20.20;83.90
22108;DHT22;11220;48.812;9.128;2023-05-07T12:01:28;20.30;84.00
22108;DHT22;11220;48.812;9.128;2023-05-07T12:03:54;20.30;84.00
22108;DHT22;11220;48.812;9.128;2023-05-07T12:06:19;21.80;85.10
22108;DHT22;11220;48.812;9.128;2023-05-07T12:08:46;21.10;84.80
22108;DHT22;11220;48.812;9.128;2023-05-07T12:11:30;21.40;85.00
22108;DHT22;11220;48.812;9.128;2023-05-07T12:13:55;20.30;84.20
22108;DHT22;11220;48.812;9.128;2023-05-07T12:16:21;20.30;84.30
22108;DHT22;11220;48.812;9.128;2023-05-07T12:18:47;21.10;84.90
22108;DHT22;11220;48.812;9.128;2023-05-07T12:21:13;20.20;84.40
22108;DHT22;11220;48.812;9.128;2023-05-07T12:23:39;20.20;84.30
22108;DHT22;11220;48.812;9.128;2023-05-07T12:26:05;20.20;84.40
22108;DHT22;11220;48.812;9.128;2023-05-07T12:28:35;20.20;84.40
22108;DHT22;11220;48.812;9.128;2023-05-07T12:31:02;20.20;84.40
22108;DHT22;11220;48.812;9.128;2023-05-07T12:33:28;20.20;84.40
22108;DHT22;11220;48.812;9.128;2023-05-07T12:35:54;21.20;85.10
22108;DHT22;11220;48.812;9.128;2023-05-07T12:38:20;20.20;84.40
22108;DHT22;11220;48.812;9.128;2023-05-07T12:40:49;20.20;84.50
22108;DHT22;11220;48.812;9.128;2023-05-07T12:45:43;20.20;84.60
22108;DHT22;11220;48.812;9.128;2023-05-07T12:48:12;20.20;84.50
22108;DHT22;11220;48.812;9.128;2023-05-07T12:50:38;20.40;84.70
22108;DHT22;11220;48.812;9.128;2023-05-07T12:53:05;20.10;84.50
22108;DHT22;11220;48.812;9.128;2023-05-07T12:55:32;20.10;84.50
22108;DHT22;11220;48.812;9.128;2023-05-07T12:58:00;20.20;84.60
22108;DHT22;11220;48.812;9.128;2023-05-07T13:00:38;20.10;84.60
22108;DHT22;11220;48.812;9.128;2023-05-07T13:03:04;20.10;84.60
22108;DHT22;11220;48.812;9.128;2023-05-07T13:05:31;20.10;84.60
22108;DHT22;11220;48.812;9.128;2023-05-07T13:07:56;20.40;84.90
22108;DHT22;11220;48.812;9.128;2023-05-07T13:10:23;20.10;84.70
22108;DHT22;11220;48.812;9.128;2023-05-07T13:12:49;20.10;84.70
22108;DHT22;11220;48.812;9.128;2023-05-07T13:15:15;20.10;84.70
22108;DHT22;11220;48.812;9.128;2023-05-07T13:21:03;20.10;84.80
22108;DHT22;11220;48.812;9.128;2023-05-07T13:23:28;20.10;84.80
22108;DHT22;11220;48.812;9.128;2023-05-07T13:25:54;20.00;85.70
22108;DHT22;11220;48.812;9.128;2023-05-07T13:28:21;20.00;84.70
22108;DHT22;11220;48.812;9.128;2023-05-07T13:30:47;20.10;84.80
22108;DHT22;11220;48.812;9.128;2023-05-07T13:33:13;20.10;84.90
22108;DHT22;11220;48.812;9.128;2023-05-07T13:35:39;20.80;85.30
22108;DHT22;11220;48.812;9.128;2023-05-07T13:38:05;20.10;84.90
22108;DHT22;11220;48.812;9.128;2023-05-07T13:40:30;21.00;85.50
22108;DHT22;11220;48.812;9.128;2023-05-07T13:43:00;21.20;85.70
22108;DHT22;11220;48.812;9.128;2023-05-07T13:45:28;20.10;84.90
22108;DHT22;11220;48.812;9.128;2023-05-07T13:47:55;20.00;84.90
22108;DHT22;11220;48.812;9.128;2023-05-07T13:50:21;20.00;84.90
22108;DHT22;11220;48.812;9.128;2023-05-07T13:52:47;20.00;84.90
22108;DHT22;11220;48.812;9.128;2023-05-07T13:55:22;20.00;84.90
22108;DHT22;11220;48.812;9.128;2023-05-07T13:57:55;20.00;84.90
22108;DHT22;11220;48.812;9.128;2023-05-07T14:00:21;20.00;84.90
22108;DHT22;11220;48.812;9.128;2023-05-07T14:02:46;20.10;85.00
22108;DHT22;11220;48.812;9.128;2023-05-07T14:05:12;20.90;85.50
22108;DHT22;11220;48.812;9.128;2023-05-07T14:07:38;21.30;85.70
22108;DHT22;11220;48.812;9.128;2023-05-07T14:10:04;20.10;85.00
22108;DHT22;11220;48.812;9.128;2023-05-07T14:12:32;20.00;85.00
22108;DHT22;11220;48.812;9.128;2023-05-07T14:14:58;20.10;85.00
22108;DHT22;11220;48.812;9.128;2023-05-07T14:17:23;20.10;85.10
22108;DHT22;11220;48.812;9.128;2023-05-07T14:19:51;20.00;85.00
22108;DHT22;11220;48.812;9.128;2023-05-07T14:22:22;20.30;85.10
22108;DHT22;11220;48.812;9.128;2023-05-07T14:24:48;20.00;85.00
22108;DHT22;11220;48.812;9.128;2023-05-07T14:27:14;20.10;85.00
22108;DHT22;11220;48.812;9.128;2023-05-07T14:29:40;20.00;85.00
22108;DHT22;11220;48.812;9.128;2023-05-07T14:32:06;20.10;85.10
22108;DHT22;11220;48.812;9.128;2023-05-07T14:34:31;21.30;85.80
22108;DHT22;11220;48.812;9.128;2023-05-07T14:36:59;20.10;85.10
22108;DHT22;11220;48.812;9.128;2023-05-07T14:39:25;20.00;85.00
22108;DHT22;11220;48.812;9.128;2023-05-07T14:41:51;20.00;85.00
22108;DHT22;11220;48.812;9.128;2023-05-07T14:44:17;20.00;85.10
22108;DHT22;11220;48.812;9.128;2023-05-07T14:46:42;20.70;85.50
22108;DHT22;11220;48.812;9.128;2023-05-07T14:49:08;20.50;85.60
22108;DHT22;11220;48.812;9.128;2023-05-07T14:51:41;20.00;85.00
22108;DHT22;11220;48.812;9.128;2023-05-07T14:54:07;20.00;85.10
22108;DHT22;11220;48.812;9.128;2023-05-07T14:56:34;20.00;85.10
22108;DHT22;11220;48.812;9.128;2023-05-07T14:59:00;20.00;85.10
22108;DHT22;11220;48.812;9.128;2023-05-07T15:01:26;19.90;85.00
22108;DHT22;11220;48.812;9.128;2023-05-07T15:03:54;21.30;85.90
22108;DHT22;11220;48.812;9.128;2023-05-07T15:06:21;20.10;85.10
22108;DHT22;11220;48.812;9.128;2023-05-07T15:08:47;21.00;85.70
22108;DHT22;11220;48.812;9.128;2023-05-07T15:11:13;20.10;85.20
22108;DHT22;11220;48.812;9.128;2023-05-07T15:13:39;21.40;86.00
22108;DHT22;11220;48.812;9.128;2023-05-07T15:16:05;20.10;85.30
22108;DHT22;11220;48.812;9.128;2023-05-07T15:18:30;20.10;85.30
22108;DHT22;11220;48.812;9.128;2023-05-07T15:20:56;20.00;85.20
22108;DHT22;11220;48.812;9.128;2023-05-07T15:23:23;20.00;85.30
22108;DHT22;11220;48.812;9.128;2023-05-07T15:25:48;20.50;85.60
22108;DHT22;11220;48.812;9.128;2023-05-07T15:28:14;20.00;85.40
22108;DHT22;11220;48.812;9.128;2023-05-07T15:30:39;20.10;85.40
22108;DHT22;11220;48.812;9.128;2023-05-07T15:33:05;20.00;85.40
22108;DHT22;11220;48.812;9.128;2023-05-07T15:35:31;20.10;85.50
22108;DHT22;11220;48.812;9.128;2023-05-07T15:37:56;20.30;85.60
22108;DHT22;11220;48.812;9.128;2023-05-07T15:40:22;20.10;85.50
22108;DHT22;11220;48.812;9.128;2023-05-07T15:42:48;20.10;85.60
22108;DHT22;11220;48.812;9.128;2023-05-07T15:45:13;20.10;85.60
22108;DHT22;11220;48.812;9.128;2023-05-07T15:47:39;20.80;86.10